sensor_id;sensor_type;location;lat;lon;timestamp;pressure;altitude;pressure_sealevel;temperature;humidity
58785;BME280;44557;51.862;19.378;2023-11-21T00:01:22;98341.20;;;4.77;100.00
58785;BME280;44557;51.862;19.378;2023-11-21T00:03:24;98344.54;;;4.81;100.00
58785;BME280;44557;51.862;19.378;2023-11-21T00:05:29;98346.98;;;4.89;100.00
58785;BME280;44557;51.862;19.378;2023-11-21T00:07:31;98346.42;;;4.90;100.00
58785;BME280;44557;51.862;19.378;2023-11-21T00:09:32;98349.88;;;4.92;100.00
58785;BME280;44557;51.862;19.378;2023-11-21T00:11:33;98354.48;;;4.92;100.00
58785;BME280;44557;51.862;19.378;2023-11-21T00:13:34;98355.02;;;4.84;100.00
58785;BME280;44557;51.862;19.378;2023-11-21T00:15:35;98359.77;;;4.90;100.00
58785;BME280;44557;51.862;19.378;2023-11-21T00:17:39;98358.72;;;4.93;100.00
58785;BME280;44557;51.862;19.378;2023-11-21T00:19:46;98356.67;;;4.89;100.00
58785;BME280;44557;51.862;19.378;2023-11-21T00:21:48;98361.71;;;5.04;100.00
58785;BME280;44557;51.862;19.378;2023-11-21T00:23:50;98367.57;;;4.98;100.00
58785;BME280;44557;51.862;19.378;2023-11-21T00:25:51;98370.96;;;4.95;100.00
58785;BME280;44557;51.862;19.378;2023-11-21T00:27:53;98376.36;;;4.83;100.00
58785;BME280;44557;51.862;19.378;2023-11-21T00:29:54;98372.16;;;4.90;100.00
58785;BME280;44557;51.862;19.378;2023-11-21T00:31:55;98374.38;;;4.91;100.00
58785;BME280;44557;51.862;19.378;2023-11-21T00:33:58;98375.00;;;4.84;100.00
58785;BME280;44557;51.862;19.378;2023-11-21T00:35:59;98373.48;;;4.85;100.00
58785;BME280;44557;51.862;19.378;2023-11-21T00:38:01;98371.94;;;4.82;100.00
58785;BME280;44557;51.862;19.378;2023-11-21T00:40:05;98376.03;;;4.75;100.00
58785;BME280;44557;51.862;19.378;2023-11-21T00:42:06;98376.37;;;4.76;100.00
58785;BME280;44557;51.862;19.378;2023-11-21T00:44:07;98378.70;;;4.69;100.00
58785;BME280;44557;51.862;19.378;2023-11-21T00:46:08;98370.21;;;4.67;100.00
58785;BME280;44557;51.862;19.378;2023-11-21T00:48:09;98376.14;;;4.55;100.00
58785;BME280;44557;51.862;19.378;2023-11-21T00:50:10;98384.59;;;4.72;100.00
58785;BME280;44557;51.862;19.378;2023-11-21T00:52:12;98379.73;;;4.71;100.00
58785;BME280;44557;51.862;19.378;2023-11-21T00:54:13;98381.90;;;4.71;100.00
58785;BME280;44557;51.862;19.378;2023-11-21T00:56:14;98382.61;;;4.62;100.00
58785;BME280;44557;51.862;19.378;2023-11-21T00:58:16;98387.35;;;4.73;100.00
58785;BME280;44557;51.862;19.378;2023-11-21T01:00:18;98382.96;;;4.71;100.00
58785;BME280;44557;51.862;19.378;2023-11-21T01:02:19;98385.27;;;4.66;100.00
58785;BME280;44557;51.862;19.378;2023-11-21T01:04:21;98385.88;;;4.45;100.00
58785;BME280;44557;51.862;19.378;2023-11-21T01:06:23;98384.73;;;4.66;100.00
58785;BME280;44557;51.862;19.378;2023-11-21T01:08:25;98383.77;;;4.55;100.00
58785;BME280;44557;51.862;19.378;2023-11-21T01:10:26;98384.33;;;4.56;100.00
58785;BME280;44557;51.862;19.378;2023-11-21T01:12:26;98387.24;;;4.59;100.00
58785;BME280;44557;51.862;19.378;2023-11-21T01:14:27;98389.64;;;4.58;100.00
58785;BME280;44557;51.862;19.378;2023-11-21T01:16:28;98388.49;;;4.51;100.00
58785;BME280;44557;51.862;19.378;2023-11-21T01:18:31;98392.33;;;4.47;100.00
58785;BME280;44557;51.862;19.378;2023-11-21T01:20:31;98394.23;;;4.38;100.00
58785;BME280;44557;51.862;19.378;2023-11-21T01:22:35;98396.83;;;4.33;100.00
58785;BME280;44557;51.862;19.378;2023-11-21T01:24:37;98398.55;;;4.43;100.00
58785;BME280;44557;51.862;19.378;2023-11-21T01:26:38;98402.44;;;4.35;100.00
58785;BME280;44557;51.862;19.378;2023-11-21T01:28:39;98407.95;;;4.38;100.00
58785;BME280;44557;51.862;19.378;2023-11-21T01:30:40;98410.12;;;4.40;100.00
58785;BME280;44557;51.862;19.378;2023-11-21T01:32:41;98415.84;;;4.53;100.00
58785;BME280;44557;51.862;19.378;2023-11-21T01:34:43;98414.77;;;4.38;100.00
58785;BME280;44557;51.862;19.378;2023-11-21T01:36:45;98415.50;;;4.21;100.00
58785;BME280;44557;51.862;19.378;2023-11-21T01:38:47;98414.67;;;4.33;100.00
58785;BME280;44557;51.862;19.378;2023-11-21T01:40:51;98417.91;;;4.24;100.00
58785;BME280;44557;51.862;19.378;2023-11-21T01:42:53;98416.20;;;4.28;100.00
58785;BME280;44557;51.862;19.378;2023-11-21T01:44:54;98417.34;;;4.20;100.00
58785;BME280;44557;51.862;19.378;2023-11-21T01:46:55;98413.61;;;4.05;100.00
58785;BME280;44557;51.862;19.378;2023-11-21T01:48:58;98415.48;;;4.05;100.00
58785;BME280;44557;51.862;19.378;2023-11-21T01:51:00;98412.06;;;4.07;100.00
58785;BME280;44557;51.862;19.378;2023-11-21T01:53:01;98415.16;;;4.05;100.00
58785;BME280;44557;51.862;19.378;2023-11-21T01:55:02;98414.35;;;4.04;100.00
58785;BME280;44557;51.862;19.378;2023-11-21T01:57:04;98412.31;;;4.00;100.00
58785;BME280;44557;51.862;19.378;2023-11-21T01:59:09;98413.44;;;3.93;100.00
58785;BME280;44557;51.862;19.378;2023-11-21T02:01:12;98410.52;;;3.85;100.00
58785;BME280;44557;51.862;19.378;2023-11-21T02:03:13;98414.52;;;3.97;100.00
58785;BME280;44557;51.862;19.378;2023-11-21T02:05:15;98412.03;;;3.91;100.00
58785;BME280;44557;51.862;19.378;2023-11-21T02:07:17;98407.21;;;3.93;100.00
58785;BME280;44557;51.862;19.378;2023-11-21T02:09:27;98407.58;;;3.83;100.00
58785;BME280;44557;51.862;19.378;2023-11-21T02:11:30;98410.48;;;3.88;100.00
58785;BME280;44557;51.862;19.378;2023-11-21T02:13:32;98411.10;;;3.92;100.00
58785;BME280;44557;51.862;19.378;2023-11-21T02:15:33;98411.96;;;3.90;100.00
58785;BME280;44557;51.862;19.378;2023-11-21T02:17:35;98412.58;;;3.84;100.00
58785;BME280;44557;51.862;19.378;2023-11-21T02:19:36;98411.79;;;3.89;100.00
58785;BME280;44557;51.862;19.378;2023-11-21T02:21:38;98415.11;;;4.13;100.00
58785;BME280;44557;51.862;19.378;2023-11-21T02:23:41;98423.23;;;4.04;100.00
58785;BME280;44557;51.862;19.378;2023-11-21T02:25:45;98421.40;;;3.87;100.00
58785;BME280;44557;51.862;19.378;2023-11-21T02:27:47;98422.85;;;4.04;100.00
58785;BME280;44557;51.862;19.378;2023-11-21T02:29:49;98423.67;;;3.84;100.00
58785;BME280;44557;51.862;19.378;2023-11-21T02:31:51;98424.17;;;3.81;100.00
58785;BME280;44557;51.862;19.378;2023-11-21T02:33:52;98426.13;;;3.77;100.00
58785;BME280;44557;51.862;19.378;2023-11-21T02:35:53;98424.98;;;3.81;100.00
58785;BME280;44557;51.862;19.378;2023-11-21T02:37:55;98422.81;;;3.85;100.00
58785;BME280;44557;51.862;19.378;2023-11-21T02:39:56;98426.86;;;3.84;100.00
58785;BME280;44557;51.862;19.378;2023-11-21T02:41:57;98429.08;;;3.79;100.00
58785;BME280;44557;51.862;19.378;2023-11-21T02:43:58;98425.75;;;3.73;100.00
58785;BME280;44557;51.862;19.378;2023-11-21T02:46:00;98425.81;;;3.84;100.00
58785;BME280;44557;51.862;19.378;2023-11-21T02:48:01;98425.13;;;3.89;100.00
58785;BME280;44557;51.862;19.378;2023-11-21T02:50:02;98423.13;;;3.87;100.00
58785;BME280;44557;51.862;19.378;2023-11-21T02:52:07;98422.36;;;3.86;100.00
58785;BME280;44557;51.862;19.378;2023-11-21T02:54:08;98425.00;;;3.85;100.00
58785;BME280;44557;51.862;19.378;2023-11-21T02:56:09;98426.56;;;3.85;100.00
58785;BME280;44557;51.862;19.378;2023-11-21T02:58:10;98429.69;;;3.90;100.00
58785;BME280;44557;51.862;19.378;2023-11-21T03:00:12;98431.23;;;3.91;100.00
58785;BME280;44557;51.862;19.378;2023-11-21T03:02:16;98434.24;;;3.79;100.00
58785;BME280;44557;51.862;19.378;2023-11-21T03:04:17;98434.20;;;3.73;100.00
58785;BME280;44557;51.862;19.378;2023-11-21T03:06:19;98436.08;;;3.77;100.00
58785;BME280;44557;51.862;19.378;2023-11-21T03:08:21;98440.73;;;3.93;100.00
58785;BME280;44557;51.862;19.378;2023-11-21T03:10:23;98438.48;;;3.87;100.00
58785;BME280;44557;51.862;19.378;2023-11-21T03:12:24;98438.41;;;3.84;100.00
58785;BME280;44557;51.862;19.378;2023-11-21T03:14:25;98437.27;;;3.79;100.00
58785;BME280;44557;51.862;19.378;2023-11-21T03:16:26;98447.41;;;3.89;100.00
58785;BME280;44557;51.862;19.378;2023-11-21T03:18:27;98450.59;;;4.01;100.00
58785;BME280;44557;51.862;19.378;2023-11-21T03:20:29;98450.98;;;3.90;100.00
58785;BME280;44557;51.862;19.378;2023-11-21T03:22:31;98452.27;;;3.89;100.00
58785;BME280;44557;51.862;19.378;2023-11-21T03:24:32;98450.11;;;3.83;100.00
58785;BME280;44557;51.862;19.378;2023-11-21T03:26:34;98444.71;;;3.82;100.00
58785;BME280;44557;51.862;19.378;2023-11-21T03:28:35;98446.91;;;3.72;100.00
58785;BME280;44557;51.862;19.378;2023-11-21T03:30:37;98449.20;;;3.64;100.00
58785;BME280;44557;51.862;19.378;2023-11-21T03:32:39;98450.79;;;3.62;100.00
58785;BME280;44557;51.862;19.378;2023-11-21T03:34:57;98456.39;;;3.59;100.00
58785;BME280;44557;51.862;19.378;2023-11-21T03:36:59;98454.60;;;3.58;100.00
58785;BME280;44557;51.862;19.378;2023-11-21T03:39:01;98457.88;;;3.56;100.00
58785;BME280;44557;51.862;19.378;2023-11-21T03:41:03;98463.39;;;3.54;100.00
58785;BME280;44557;51.862;19.378;2023-11-21T03:43:04;98466.71;;;3.63;100.00
58785;BME280;44557;51.862;19.378;2023-11-21T03:45:06;98468.10;;;3.72;100.00
58785;BME280;44557;51.862;19.378;2023-11-21T03:47:08;98468.09;;;3.74;100.00
58785;BME280;44557;51.862;19.378;2023-11-21T03:49:10;98471.64;;;3.68;100.00
58785;BME280;44557;51.862;19.378;2023-11-21T03:51:12;98469.69;;;3.80;100.00
58785;BME280;44557;51.862;19.378;2023-11-21T03:53:13;98473.46;;;3.92;100.00
58785;BME280;44557;51.862;19.378;2023-11-21T03:55:14;98478.01;;;3.71;100.00
58785;BME280;44557;51.862;19.378;2023-11-21T03:57:16;98479.25;;;3.73;100.00
58785;BME280;44557;51.862;19.378;2023-11-21T03:59:17;98480.03;;;3.66;100.00
58785;BME280;44557;51.862;19.378;2023-11-21T04:01:24;98481.57;;;3.59;100.00
58785;BME280;44557;51.862;19.378;2023-11-21T04:03:26;98484.93;;;3.54;100.00
58785;BME280;44557;51.862;19.378;2023-11-21T04:05:30;98482.92;;;3.52;100.00
58785;BME280;44557;51.862;19.378;2023-11-21T04:07:32;98478.14;;;3.50;100.00
58785;BME280;44557;51.862;19.378;2023-11-21T04:09:35;98478.35;;;3.46;100.00
58785;BME280;44557;51.862;19.378;2023-11-21T04:11:37;98479.79;;;3.53;100.00
58785;BME280;44557;51.862;19.378;2023-11-21T04:13:39;98480.13;;;3.58;100.00
58785;BME280;44557;51.862;19.378;2023-11-21T04:15:40;98480.95;;;3.50;100.00
58785;BME280;44557;51.862;19.378;2023-11-21T04:17:41;98482.42;;;3.37;100.00
58785;BME280;44557;51.862;19.378;2023-11-21T04:19:43;98478.83;;;3.39;100.00
58785;BME280;44557;51.862;19.378;2023-11-21T04:21:43;98483.06;;;3.44;100.00
58785;BME280;44557;51.862;19.378;2023-11-21T04:23:45;98481.49;;;3.37;100.00
58785;BME280;44557;51.862;19.378;2023-11-21T04:25:47;98484.92;;;3.44;100.00
58785;BME280;44557;51.862;19.378;2023-11-21T04:27:49;98490.11;;;3.39;100.00
58785;BME280;44557;51.862;19.378;2023-11-21T04:29:50;98493.94;;;3.38;100.00
58785;BME280;44557;51.862;19.378;2023-11-21T04:31:51;98496.87;;;3.32;100.00
58785;BME280;44557;51.862;19.378;2023-11-21T04:33:53;98501.80;;;3.32;100.00
58785;BME280;44557;51.862;19.378;2023-11-21T04:35:54;98502.71;;;3.34;100.00
58785;BME280;44557;51.862;19.378;2023-11-21T04:37:55;98505.51;;;3.37;100.00
58785;BME280;44557;51.862;19.378;2023-11-21T04:39:56;98510.93;;;3.22;100.00
58785;BME280;44557;51.862;19.378;2023-11-21T04:41:59;98508.89;;;3.16;100.00
58785;BME280;44557;51.862;19.378;2023-11-21T04:44:01;98512.74;;;3.25;100.00
58785;BME280;44557;51.862;19.378;2023-11-21T04:46:02;98514.75;;;3.22;100.00
58785;BME280;44557;51.862;19.378;2023-11-21T04:48:05;98517.70;;;3.21;100.00
58785;BME280;44557;51.862;19.378;2023-11-21T04:50:08;98524.30;;;3.26;100.00
58785;BME280;44557;51.862;19.378;2023-11-21T04:52:09;98525.41;;;3.13;100.00
58785;BME280;44557;51.862;19.378;2023-11-21T04:54:11;98523.94;;;3.07;100.00
58785;BME280;44557;51.862;19.378;2023-11-21T04:56:12;98525.63;;;3.15;100.00
58785;BME280;44557;51.862;19.378;2023-11-21T04:58:14;98530.35;;;3.22;100.00
58785;BME280;44557;51.862;19.378;2023-11-21T05:00:23;98531.95;;;3.34;100.00
58785;BME280;44557;51.862;19.378;2023-11-21T05:02:32;98533.08;;;3.26;100.00
58785;BME280;44557;51.862;19.378;2023-11-21T05:04:40;98532.98;;;3.13;100.00
58785;BME280;44557;51.862;19.378;2023-11-21T05:06:56;98537.35;;;3.18;100.00
58785;BME280;44557;51.862;19.378;2023-11-21T05:09:29;98532.77;;;3.08;100.00
58785;BME280;44557;51.862;19.378;2023-11-21T05:11:37;98532.92;;;2.95;100.00
58785;BME280;44557;51.862;19.378;2023-11-21T05:13:46;98534.17;;;2.97;100.00
58785;BME280;44557;51.862;19.378;2023-11-21T05:15:56;98536.55;;;3.00;100.00
58785;BME280;44557;51.862;19.378;2023-11-21T05:18:06;98542.19;;;3.18;100.00
58785;BME280;44557;51.862;19.378;2023-11-21T05:20:16;98544.72;;;3.03;100.00
58785;BME280;44557;51.862;19.378;2023-11-21T05:22:25;98548.10;;;2.84;100.00
58785;BME280;44557;51.862;19.378;2023-11-21T05:24:29;98549.14;;;2.88;100.00
58785;BME280;44557;51.862;19.378;2023-11-21T05:26:38;98552.66;;;2.81;100.00
58785;BME280;44557;51.862;19.378;2023-11-21T05:28:39;98549.35;;;2.86;100.00
58785;BME280;44557;51.862;19.378;2023-11-21T05:30:42;98552.39;;;2.86;100.00
58785;BME280;44557;51.862;19.378;2023-11-21T05:32:50;98556.10;;;2.84;100.00
58785;BME280;44557;51.862;19.378;2023-11-21T05:34:59;98563.62;;;2.76;100.00
58785;BME280;44557;51.862;19.378;2023-11-21T05:37:12;98561.66;;;2.74;100.00
58785;BME280;44557;51.862;19.378;2023-11-21T05:39:15;98566.35;;;2.77;100.00
58785;BME280;44557;51.862;19.378;2023-11-21T05:41:22;98569.53;;;2.66;100.00
58785;BME280;44557;51.862;19.378;2023-11-21T05:43:31;98575.98;;;2.53;100.00
58785;BME280;44557;51.862;19.378;2023-11-21T05:45:39;98571.99;;;2.56;100.00
58785;BME280;44557;51.862;19.378;2023-11-21T05:47:48;98565.30;;;2.54;100.00
58785;BME280;44557;51.862;19.378;2023-11-21T05:49:57;98573.41;;;2.44;100.00
58785;BME280;44557;51.862;19.378;2023-11-21T05:52:13;98570.86;;;2.35;100.00
58785;BME280;44557;51.862;19.378;2023-11-21T05:54:46;98573.16;;;2.39;100.00
58785;BME280;44557;51.862;19.378;2023-11-21T05:56:48;98576.08;;;2.40;100.00
58785;BME280;44557;51.862;19.378;2023-11-21T05:58:51;98576.08;;;2.40;100.00
58785;BME280;44557;51.862;19.378;2023-11-21T06:00:53;98579.52;;;2.33;100.00
58785;BME280;44557;51.862;19.378;2023-11-21T06:03:02;98580.05;;;2.15;100.00
58785;BME280;44557;51.862;19.378;2023-11-21T06:05:11;98580.91;;;2.24;100.00
58785;BME280;44557;51.862;19.378;2023-11-21T06:07:21;98583.39;;;2.27;100.00
58785;BME280;44557;51.862;19.378;2023-11-21T06:09:30;98583.05;;;2.26;100.00
58785;BME280;44557;51.862;19.378;2023-11-21T06:11:38;98589.88;;;2.23;100.00
58785;BME280;44557;51.862;19.378;2023-11-21T06:13:47;98588.23;;;2.39;100.00
58785;BME280;44557;51.862;19.378;2023-11-21T06:15:56;98591.65;;;2.24;100.00
58785;BME280;44557;51.862;19.378;2023-11-21T06:18:04;98596.70;;;2.25;100.00
58785;BME280;44557;51.862;19.378;2023-11-21T06:20:11;98596.25;;;2.25;100.00
58785;BME280;44557;51.862;19.378;2023-11-21T06:22:15;98604.13;;;2.23;100.00
58785;BME280;44557;51.862;19.378;2023-11-21T06:24:17;98605.14;;;2.13;100.00
58785;BME280;44557;51.862;19.378;2023-11-21T06:26:18;98608.48;;;2.09;100.00
58785;BME280;44557;51.862;19.378;2023-11-21T06:28:19;98611.84;;;2.04;100.00
58785;BME280;44557;51.862;19.378;2023-11-21T06:30:20;98609.33;;;1.91;100.00
58785;BME280;44557;51.862;19.378;2023-11-21T06:32:22;98614.85;;;2.01;100.00
58785;BME280;44557;51.862;19.378;2023-11-21T06:34:24;98612.35;;;2.00;100.00
58785;BME280;44557;51.862;19.378;2023-11-21T06:36:25;98611.91;;;2.09;100.00
58785;BME280;44557;51.862;19.378;2023-11-21T06:38:27;98611.98;;;2.09;100.00
58785;BME280;44557;51.862;19.378;2023-11-21T06:40:32;98614.85;;;2.09;100.00
58785;BME280;44557;51.862;19.378;2023-11-21T06:42:39;98613.41;;;1.95;100.00
58785;BME280;44557;51.862;19.378;2023-11-21T06:44:41;98613.73;;;2.00;100.00
58785;BME280;44557;51.862;19.378;2023-11-21T06:46:51;98618.58;;;2.03;100.00
58785;BME280;44557;51.862;19.378;2023-11-21T06:48:53;98619.91;;;1.89;100.00
58785;BME280;44557;51.862;19.378;2023-11-21T06:50:54;98622.06;;;1.99;100.00
58785;BME280;44557;51.862;19.378;2023-11-21T06:52:56;98625.80;;;1.99;100.00
58785;BME280;44557;51.862;19.378;2023-11-21T06:54:57;98628.48;;;2.10;100.00
58785;BME280;44557;51.862;19.378;2023-11-21T06:56:58;98634.34;;;2.08;100.00
58785;BME280;44557;51.862;19.378;2023-11-21T06:58:59;98639.43;;;2.10;100.00
58785;BME280;44557;51.862;19.378;2023-11-21T07:01:08;98643.23;;;1.97;100.00
58785;BME280;44557;51.862;19.378;2023-11-21T07:03:16;98643.64;;;1.96;100.00
58785;BME280;44557;51.862;19.378;2023-11-21T07:05:22;98651.40;;;2.03;100.00
58785;BME280;44557;51.862;19.378;2023-11-21T07:07:32;98658.35;;;2.12;100.00
58785;BME280;44557;51.862;19.378;2023-11-21T07:09:40;98663.43;;;1.95;100.00
58785;BME280;44557;51.862;19.378;2023-11-21T07:11:49;98661.48;;;1.90;100.00
58785;BME280;44557;51.862;19.378;2023-11-21T07:14:09;98667.30;;;1.97;100.00
58785;BME280;44557;51.862;19.378;2023-11-21T07:16:18;98669.19;;;1.98;100.00
58785;BME280;44557;51.862;19.378;2023-11-21T07:18:26;98671.38;;;2.01;100.00
58785;BME280;44557;51.862;19.378;2023-11-21T07:20:34;98676.02;;;1.98;100.00
58785;BME280;44557;51.862;19.378;2023-11-21T07:22:38;98676.60;;;1.92;100.00
58785;BME280;44557;51.862;19.378;2023-11-21T07:24:44;98681.60;;;1.96;100.00
58785;BME280;44557;51.862;19.378;2023-11-21T07:26:56;98685.27;;;1.95;100.00
58785;BME280;44557;51.862;19.378;2023-11-21T07:29:08;98688.96;;;1.73;100.00
58785;BME280;44557;51.862;19.378;2023-11-21T07:31:17;98693.43;;;1.80;100.00
58785;BME280;44557;51.862;19.378;2023-11-21T07:33:29;98695.80;;;1.81;100.00
58785;BME280;44557;51.862;19.378;2023-11-21T07:35:42;98699.55;;;1.81;100.00
58785;BME280;44557;51.862;19.378;2023-11-21T07:37:51;98701.23;;;1.76;100.00
58785;BME280;44557;51.862;19.378;2023-11-21T07:40:00;98702.63;;;1.79;100.00
58785;BME280;44557;51.862;19.378;2023-11-21T07:42:34;98703.09;;;1.84;100.00
58785;BME280;44557;51.862;19.378;2023-11-21T07:45:08;98703.63;;;1.73;100.00
58785;BME280;44557;51.862;19.378;2023-11-21T07:47:41;98701.39;;;1.69;100.00
58785;BME280;44557;51.862;19.378;2023-11-21T07:50:15;98706.30;;;1.70;100.00
58785;BME280;44557;51.862;19.378;2023-11-21T07:52:50;98712.77;;;1.75;100.00
58785;BME280;44557;51.862;19.378;2023-11-21T07:55:06;98712.16;;;1.68;100.00
58785;BME280;44557;51.862;19.378;2023-11-21T07:57:21;98714.02;;;1.59;100.00
58785;BME280;44557;51.862;19.378;2023-11-21T07:59:35;98714.83;;;1.67;100.00
58785;BME280;44557;51.862;19.378;2023-11-21T08:01:50;98719.15;;;1.56;100.00
58785;BME280;44557;51.862;19.378;2023-11-21T08:04:06;98723.11;;;1.58;100.00
58785;BME280;44557;51.862;19.378;2023-11-21T08:06:20;98725.81;;;1.54;100.00
58785;BME280;44557;51.862;19.378;2023-11-21T08:08:35;98723.80;;;1.43;100.00
58785;BME280;44557;51.862;19.378;2023-11-21T08:11:09;98721.73;;;1.46;100.00
58785;BME280;44557;51.862;19.378;2023-11-21T08:13:43;98725.41;;;1.47;100.00
58785;BME280;44557;51.862;19.378;2023-11-21T08:15:58;98723.91;;;1.61;100.00
58785;BME280;44557;51.862;19.378;2023-11-21T08:18:13;98727.28;;;1.54;100.00
58785;BME280;44557;51.862;19.378;2023-11-21T08:20:28;98728.45;;;1.54;100.00
58785;BME280;44557;51.862;19.378;2023-11-21T08:22:44;98728.64;;;1.61;100.00
58785;BME280;44557;51.862;19.378;2023-11-21T08:24:58;98729.56;;;1.54;100.00
58785;BME280;44557;51.862;19.378;2023-11-21T08:27:13;98730.30;;;1.60;100.00
58785;BME280;44557;51.862;19.378;2023-11-21T08:29:28;98735.83;;;1.63;100.00
58785;BME280;44557;51.862;19.378;2023-11-21T08:31:43;98733.64;;;1.64;100.00
58785;BME280;44557;51.862;19.378;2023-11-21T08:33:58;98735.61;;;1.68;100.00
58785;BME280;44557;51.862;19.378;2023-11-21T08:36:24;98741.92;;;1.62;100.00
58785;BME280;44557;51.862;19.378;2023-11-21T08:38:26;98747.73;;;1.57;100.00
58785;BME280;44557;51.862;19.378;2023-11-21T08:40:29;98746.70;;;1.65;100.00
58785;BME280;44557;51.862;19.378;2023-11-21T08:42:35;98747.11;;;1.66;100.00
58785;BME280;44557;51.862;19.378;2023-11-21T08:44:37;98751.58;;;1.52;100.00
58785;BME280;44557;51.862;19.378;2023-11-21T08:46:40;98751.91;;;1.49;100.00
58785;BME280;44557;51.862;19.378;2023-11-21T08:48:43;98750.13;;;1.54;100.00
58785;BME280;44557;51.862;19.378;2023-11-21T08:50:45;98751.04;;;1.65;100.00
58785;BME280;44557;51.862;19.378;2023-11-21T08:52:46;98754.10;;;1.59;100.00
58785;BME280;44557;51.862;19.378;2023-11-21T08:54:48;98752.59;;;1.61;100.00
58785;BME280;44557;51.862;19.378;2023-11-21T08:56:49;98756.35;;;1.57;100.00
58785;BME280;44557;51.862;19.378;2023-11-21T08:58:52;98760.36;;;1.33;100.00
58785;BME280;44557;51.862;19.378;2023-11-21T09:00:54;98764.27;;;1.42;100.00
58785;BME280;44557;51.862;19.378;2023-11-21T09:02:54;98762.80;;;1.45;100.00
58785;BME280;44557;51.862;19.378;2023-11-21T09:04:56;98764.31;;;1.53;100.00
58785;BME280;44557;51.862;19.378;2023-11-21T09:06:58;98768.69;;;1.59;100.00
58785;BME280;44557;51.862;19.378;2023-11-21T09:09:00;98767.77;;;1.60;100.00
58785;BME280;44557;51.862;19.378;2023-11-21T09:11:02;98768.27;;;1.51;100.00
58785;BME280;44557;51.862;19.378;2023-11-21T09:13:04;98768.52;;;1.54;100.00
58785;BME280;44557;51.862;19.378;2023-11-21T09:15:05;98766.65;;;1.52;100.00
58785;BME280;44557;51.862;19.378;2023-11-21T09:17:07;98764.27;;;1.65;100.00
58785;BME280;44557;51.862;19.378;2023-11-21T09:19:11;98767.54;;;1.57;100.00
58785;BME280;44557;51.862;19.378;2023-11-21T09:21:12;98770.46;;;1.50;100.00
58785;BME280;44557;51.862;19.378;2023-11-21T09:23:14;98767.77;;;1.64;100.00
58785;BME280;44557;51.862;19.378;2023-11-21T09:25:15;98770.30;;;1.60;100.00
58785;BME280;44557;51.862;19.378;2023-11-21T09:27:17;98773.61;;;1.60;100.00
58785;BME280;44557;51.862;19.378;2023-11-21T09:29:18;98777.15;;;1.60;100.00
58785;BME280;44557;51.862;19.378;2023-11-21T09:31:19;98776.65;;;1.52;100.00
58785;BME280;44557;51.862;19.378;2023-11-21T09:33:23;98770.73;;;1.57;100.00
58785;BME280;44557;51.862;19.378;2023-11-21T09:35:26;98776.97;;;1.47;100.00
58785;BME280;44557;51.862;19.378;2023-11-21T09:37:29;98778.31;;;1.54;100.00
58785;BME280;44557;51.862;19.378;2023-11-21T09:39:30;98780.22;;;1.42;100.00
58785;BME280;44557;51.862;19.378;2023-11-21T09:41:43;98782.55;;;1.42;100.00
58785;BME280;44557;51.862;19.378;2023-11-21T09:43:46;98776.70;;;1.48;100.00
58785;BME280;44557;51.862;19.378;2023-11-21T09:45:51;98775.81;;;1.43;100.00
58785;BME280;44557;51.862;19.378;2023-11-21T09:47:55;98777.58;;;1.41;100.00
58785;BME280;44557;51.862;19.378;2023-11-21T09:49:56;98780.27;;;1.33;100.00
58785;BME280;44557;51.862;19.378;2023-11-21T09:52:03;98777.97;;;1.37;100.00
58785;BME280;44557;51.862;19.378;2023-11-21T09:54:06;98780.05;;;1.45;100.00
58785;BME280;44557;51.862;19.378;2023-11-21T09:56:09;98778.77;;;1.54;100.00
58785;BME280;44557;51.862;19.378;2023-11-21T09:58:11;98778.14;;;1.56;100.00
58785;BME280;44557;51.862;19.378;2023-11-21T10:00:16;98781.98;;;1.65;100.00
58785;BME280;44557;51.862;19.378;2023-11-21T10:02:27;98783.38;;;1.64;100.00
58785;BME280;44557;51.862;19.378;2023-11-21T10:04:34;98783.77;;;1.54;100.00
58785;BME280;44557;51.862;19.378;2023-11-21T10:06:38;98788.90;;;1.53;100.00
58785;BME280;44557;51.862;19.378;2023-11-21T10:08:42;98790.86;;;1.52;100.00
58785;BME280;44557;51.862;19.378;2023-11-21T10:10:46;98794.14;;;1.49;100.00
58785;BME280;44557;51.862;19.378;2023-11-21T10:12:50;98796.67;;;1.58;100.00
58785;BME280;44557;51.862;19.378;2023-11-21T10:15:03;98799.02;;;1.58;100.00
58785;BME280;44557;51.862;19.378;2023-11-21T10:17:08;98794.21;;;1.42;100.00
58785;BME280;44557;51.862;19.378;2023-11-21T10:19:13;98799.29;;;1.49;100.00
58785;BME280;44557;51.862;19.378;2023-11-21T10:21:25;98799.88;;;1.35;100.00
58785;BME280;44557;51.862;19.378;2023-11-21T10:23:27;98801.42;;;1.40;100.00
58785;BME280;44557;51.862;19.378;2023-11-21T10:25:32;98804.48;;;1.40;100.00
58785;BME280;44557;51.862;19.378;2023-11-21T10:27:38;98809.72;;;1.43;100.00
58785;BME280;44557;51.862;19.378;2023-11-21T10:29:40;98814.03;;;1.42;100.00
58785;BME280;44557;51.862;19.378;2023-11-21T10:31:43;98810.75;;;1.40;100.00
58785;BME280;44557;51.862;19.378;2023-11-21T10:33:48;98812.43;;;1.34;100.00
58785;BME280;44557;51.862;19.378;2023-11-21T10:35:50;98809.09;;;1.42;100.00
58785;BME280;44557;51.862;19.378;2023-11-21T10:37:59;98812.64;;;1.47;100.00
58785;BME280;44557;51.862;19.378;2023-11-21T10:40:01;98810.42;;;1.49;100.00
58785;BME280;44557;51.862;19.378;2023-11-21T10:42:22;98811.33;;;1.50;100.00
58785;BME280;44557;51.862;19.378;2023-11-21T10:44:26;98811.05;;;1.45;100.00
58785;BME280;44557;51.862;19.378;2023-11-21T10:46:28;98811.41;;;1.46;100.00
58785;BME280;44557;51.862;19.378;2023-11-21T10:48:31;98817.42;;;1.40;100.00
58785;BME280;44557;51.862;19.378;2023-11-21T10:50:53;98822.92;;;1.40;100.00
58785;BME280;44557;51.862;19.378;2023-11-21T10:53:15;98827.11;;;1.36;100.00
58785;BME280;44557;51.862;19.378;2023-11-21T10:55:20;98831.42;;;1.43;100.00